Terminal Aerodrome Forecast
Issued by NWS

Home | Current Version | Previous Version | Text Only | Print | Product List | Glossary Off
Versions: 1 2 3 4 5 6 7 8 9 10 11 12 13 14 15 16 17 18 19 20 21 22 23 24 25 26
000 FTUS41 KBOX 301120 TAFHYA TAF KHYA 301120Z 3012/0112 05012G20KT P6SM FEW025 OVC120 FM301400 07015G24KT P6SM VCSH OVC030 FM301500 07015G24KT P6SM -SHRA OVC025 FM301700 07015G25KT P6SM -SHRA OVC015 FM302000 07015G25KT P6SM -SHRA OVC008=

USA.gov is the U.S. government's official web portal to all federal, state and local government web resources and services.